sensor_id;sensor_type;location;lat;lon;timestamp;pressure;altitude;pressure_sealevel;temperature;humidity
45864;BME280;31579;52.354;16.974;2022-12-07T00:00:00;472.4;;;-146.1;100.0
45864;BME280;31579;52.354;16.974;2022-12-07T00:02:08;387.4;;;-146.1;100.0
45864;BME280;31579;52.354;16.974;2022-12-07T00:03:11;393.3;;;-146.1;100.0
45864;BME280;31579;52.354;16.974;2022-12-07T00:04:15;397.4;;;-146.1;100.0
45864;BME280;31579;52.354;16.974;2022-12-07T00:05:17;402.1;;;-146.1;100.0
45864;BME280;31579;52.354;16.974;2022-12-07T00:06:20;405.1;;;-146.1;100.0
45864;BME280;31579;52.354;16.974;2022-12-07T00:07:23;407.8;;;-146.1;100.0
45864;BME280;31579;52.354;16.974;2022-12-07T00:08:26;409.8;;;-146.1;100.0
45864;BME280;31579;52.354;16.974;2022-12-07T00:09:30;410.2;;;-146.1;100.0
45864;BME280;31579;52.354;16.974;2022-12-07T00:10:33;413.4;;;-146.1;100.0
45864;BME280;31579;52.354;16.974;2022-12-07T00:11:36;415.4;;;-146.1;100.0
45864;BME280;31579;52.354;16.974;2022-12-07T00:12:39;418.6;;;-146.1;100.0
45864;BME280;31579;52.354;16.974;2022-12-07T00:13:42;421.7;;;-146.1;100.0
45864;BME280;31579;52.354;16.974;2022-12-07T00:14:45;424.6;;;-146.1;100.0
45864;BME280;31579;52.354;16.974;2022-12-07T00:15:48;427.1;;;-146.1;100.0
45864;BME280;31579;52.354;16.974;2022-12-07T00:16:51;427.9;;;-146.1;100.0
45864;BME280;31579;52.354;16.974;2022-12-07T00:17:54;428.2;;;-146.1;100.0
45864;BME280;31579;52.354;16.974;2022-12-07T00:18:57;430.5;;;-146.1;100.0
45864;BME280;31579;52.354;16.974;2022-12-07T00:20:01;383.1;;;-146.1;100.0
45864;BME280;31579;52.354;16.974;2022-12-07T00:21:27;394.4;;;-146.1;100.0
45864;BME280;31579;52.354;16.974;2022-12-07T00:22:08;342.9;;;-146.1;100.0
45864;BME280;31579;52.354;16.974;2022-12-07T00:23:11;352.3;;;-146.1;100.0
45864;BME280;31579;52.354;16.974;2022-12-07T00:24:14;362.6;;;-146.1;100.0
45864;BME280;31579;52.354;16.974;2022-12-07T00:25:17;371.9;;;-146.1;100.0
45864;BME280;31579;52.354;16.974;2022-12-07T00:26:21;378.9;;;-146.1;100.0
45864;BME280;31579;52.354;16.974;2022-12-07T00:27:23;384.9;;;-146.1;100.0
45864;BME280;31579;52.354;16.974;2022-12-07T00:28:26;390.7;;;-146.1;100.0
45864;BME280;31579;52.354;16.974;2022-12-07T00:29:29;390.0;;;-146.1;100.0
45864;BME280;31579;52.354;16.974;2022-12-07T00:30:33;398.2;;;-146.1;100.0
45864;BME280;31579;52.354;16.974;2022-12-07T00:31:36;402.0;;;-146.1;100.0
45864;BME280;31579;52.354;16.974;2022-12-07T00:32:39;406.3;;;-146.1;100.0
45864;BME280;31579;52.354;16.974;2022-12-07T00:33:42;408.7;;;-146.1;100.0
45864;BME280;31579;52.354;16.974;2022-12-07T00:34:45;410.9;;;-146.1;100.0
45864;BME280;31579;52.354;16.974;2022-12-07T00:35:54;413.6;;;-146.1;100.0
45864;BME280;31579;52.354;16.974;2022-12-07T00:36:51;416.8;;;-146.1;100.0
45864;BME280;31579;52.354;16.974;2022-12-07T00:37:54;418.1;;;-146.1;100.0
45864;BME280;31579;52.354;16.974;2022-12-07T00:38:57;419.5;;;-146.1;100.0
45864;BME280;31579;52.354;16.974;2022-12-07T00:40:01;386.4;;;-146.1;100.0
45864;BME280;31579;52.354;16.974;2022-12-07T00:41:07;398.4;;;-146.1;100.0
45864;BME280;31579;52.354;16.974;2022-12-07T00:42:08;340.6;;;-146.1;100.0
45864;BME280;31579;52.354;16.974;2022-12-07T00:43:11;348.3;;;-146.1;100.0
45864;BME280;31579;52.354;16.974;2022-12-07T00:44:14;357.0;;;-146.1;100.0
45864;BME280;31579;52.354;16.974;2022-12-07T00:45:17;365.6;;;-146.1;100.0
45864;BME280;31579;52.354;16.974;2022-12-07T00:46:20;372.9;;;-146.1;100.0
45864;BME280;31579;52.354;16.974;2022-12-07T00:47:23;378.6;;;-146.1;100.0
45864;BME280;31579;52.354;16.974;2022-12-07T00:48:26;384.9;;;-146.1;100.0
45864;BME280;31579;52.354;16.974;2022-12-07T00:49:29;390.5;;;-146.1;100.0
45864;BME280;31579;52.354;16.974;2022-12-07T00:50:32;394.7;;;-146.1;100.0
45864;BME280;31579;52.354;16.974;2022-12-07T00:51:35;398.5;;;-146.1;100.0
45864;BME280;31579;52.354;16.974;2022-12-07T00:52:38;401.8;;;-146.1;100.0
45864;BME280;31579;52.354;16.974;2022-12-07T00:53:41;404.0;;;-146.1;100.0
45864;BME280;31579;52.354;16.974;2022-12-07T00:54:44;406.6;;;-146.1;100.0
45864;BME280;31579;52.354;16.974;2022-12-07T00:55:47;408.3;;;-146.1;100.0
45864;BME280;31579;52.354;16.974;2022-12-07T00:56:50;410.7;;;-146.1;100.0
45864;BME280;31579;52.354;16.974;2022-12-07T00:57:53;413.3;;;-146.1;100.0
45864;BME280;31579;52.354;16.974;2022-12-07T00:58:57;415.4;;;-146.1;100.0
45864;BME280;31579;52.354;16.974;2022-12-07T00:59:59;417.0;;;-146.1;100.0
45864;BME280;31579;52.354;16.974;2022-12-07T01:01:08;426.3;;;-146.1;100.0
45864;BME280;31579;52.354;16.974;2022-12-07T01:02:11;336.9;;;-146.1;100.0
45864;BME280;31579;52.354;16.974;2022-12-07T01:03:14;341.9;;;-146.1;100.0
45864;BME280;31579;52.354;16.974;2022-12-07T01:04:18;353.0;;;-146.1;100.0
45864;BME280;31579;52.354;16.974;2022-12-07T01:05:21;361.6;;;-146.1;100.0
45864;BME280;31579;52.354;16.974;2022-12-07T01:06:24;369.0;;;-146.1;100.0
45864;BME280;31579;52.354;16.974;2022-12-07T01:07:27;375.8;;;-146.1;100.0
45864;BME280;31579;52.354;16.974;2022-12-07T01:08:30;381.0;;;-146.1;100.0
45864;BME280;31579;52.354;16.974;2022-12-07T01:09:33;386.7;;;-146.1;100.0
45864;BME280;31579;52.354;16.974;2022-12-07T01:10:36;391.2;;;-146.1;100.0
45864;BME280;31579;52.354;16.974;2022-12-07T01:11:40;398.4;;;-146.1;100.0
45864;BME280;31579;52.354;16.974;2022-12-07T01:12:43;402.3;;;-146.1;100.0
45864;BME280;31579;52.354;16.974;2022-12-07T01:13:49;409.5;;;-146.1;100.0
45864;BME280;31579;52.354;16.974;2022-12-07T01:14:50;412.3;;;-146.1;100.0
45864;BME280;31579;52.354;16.974;2022-12-07T01:15:55;415.4;;;-146.1;100.0
45864;BME280;31579;52.354;16.974;2022-12-07T01:16:56;418.7;;;-146.1;100.0
45864;BME280;31579;52.354;16.974;2022-12-07T01:17:59;421.2;;;-146.1;100.0
45864;BME280;31579;52.354;16.974;2022-12-07T01:19:02;423.7;;;-146.1;100.0
45864;BME280;31579;52.354;16.974;2022-12-07T01:20:04;486.5;;;-146.1;100.0
45864;BME280;31579;52.354;16.974;2022-12-07T01:21:09;477.5;;;-146.1;100.0
45864;BME280;31579;52.354;16.974;2022-12-07T01:22:10;470.4;;;-146.1;100.0
45864;BME280;31579;52.354;16.974;2022-12-07T01:23:13;466.4;;;-146.1;100.0
45864;BME280;31579;52.354;16.974;2022-12-07T01:24:16;463.2;;;-146.1;100.0
45864;BME280;31579;52.354;16.974;2022-12-07T01:25:19;462.5;;;-146.1;100.0
45864;BME280;31579;52.354;16.974;2022-12-07T01:26:23;461.4;;;-146.1;100.0
45864;BME280;31579;52.354;16.974;2022-12-07T01:27:25;461.0;;;-146.1;100.0
45864;BME280;31579;52.354;16.974;2022-12-07T01:28:28;460.5;;;-146.1;100.0
45864;BME280;31579;52.354;16.974;2022-12-07T01:29:31;459.8;;;-146.1;100.0
45864;BME280;31579;52.354;16.974;2022-12-07T01:30:34;459.2;;;-146.1;100.0
45864;BME280;31579;52.354;16.974;2022-12-07T01:31:37;458.6;;;-146.1;100.0
45864;BME280;31579;52.354;16.974;2022-12-07T01:32:40;457.6;;;-146.1;100.0
45864;BME280;31579;52.354;16.974;2022-12-07T01:33:44;456.9;;;-146.1;100.0
45864;BME280;31579;52.354;16.974;2022-12-07T01:34:47;456.2;;;-146.1;100.0
45864;BME280;31579;52.354;16.974;2022-12-07T01:35:50;454.1;;;-146.1;100.0
45864;BME280;31579;52.354;16.974;2022-12-07T01:36:53;454.5;;;-146.1;100.0
45864;BME280;31579;52.354;16.974;2022-12-07T01:37:56;454.1;;;-146.1;100.0
45864;BME280;31579;52.354;16.974;2022-12-07T01:39:02;454.5;;;-146.1;100.0
45864;BME280;31579;52.354;16.974;2022-12-07T01:40:03;455.5;;;-146.1;100.0
45864;BME280;31579;52.354;16.974;2022-12-07T01:41:05;492.8;;;-146.1;100.0
45864;BME280;31579;52.354;16.974;2022-12-07T01:42:12;484.6;;;-146.1;100.0
45864;BME280;31579;52.354;16.974;2022-12-07T01:46:20;473.7;;;-146.1;100.0
45864;BME280;31579;52.354;16.974;2022-12-07T01:47:23;472.4;;;-146.1;100.0
45864;BME280;31579;52.354;16.974;2022-12-07T01:48:28;471.7;;;-146.1;100.0
45864;BME280;31579;52.354;16.974;2022-12-07T01:50:33;468.7;;;-146.1;100.0
45864;BME280;31579;52.354;16.974;2022-12-07T01:51:36;468.3;;;-146.1;100.0
45864;BME280;31579;52.354;16.974;2022-12-07T01:52:39;467.7;;;-146.1;100.0
45864;BME280;31579;52.354;16.974;2022-12-07T01:53:43;467.1;;;-146.1;100.0
45864;BME280;31579;52.354;16.974;2022-12-07T01:54:45;467.6;;;-146.1;100.0
45864;BME280;31579;52.354;16.974;2022-12-07T01:55:49;463.1;;;-146.1;100.0
45864;BME280;31579;52.354;16.974;2022-12-07T01:56:57;392.0;;;-146.1;100.0
45864;BME280;31579;52.354;16.974;2022-12-07T01:58:01;376.4;;;-146.1;100.0
45864;BME280;31579;52.354;16.974;2022-12-07T01:59:04;329.7;;;-146.1;100.0
45864;BME280;31579;52.354;16.974;2022-12-07T02:00:08;346.7;;;-146.1;100.0
45864;BME280;31579;52.354;16.974;2022-12-07T02:01:10;362.4;;;-146.1;100.0
45864;BME280;31579;52.354;16.974;2022-12-07T02:02:23;379.2;;;-146.1;100.0
45864;BME280;31579;52.354;16.974;2022-12-07T02:03:18;390.3;;;-146.1;100.0
45864;BME280;31579;52.354;16.974;2022-12-07T02:04:21;400.3;;;-146.1;100.0
45864;BME280;31579;52.354;16.974;2022-12-07T02:05:24;412.9;;;-146.1;100.0
45864;BME280;31579;52.354;16.974;2022-12-07T02:06:27;419.6;;;-146.1;100.0
45864;BME280;31579;52.354;16.974;2022-12-07T02:07:30;425.2;;;-146.1;100.0
45864;BME280;31579;52.354;16.974;2022-12-07T02:08:33;431.7;;;-146.1;100.0
45864;BME280;31579;52.354;16.974;2022-12-07T02:09:36;436.7;;;-146.1;100.0
45864;BME280;31579;52.354;16.974;2022-12-07T02:10:39;440.9;;;-146.1;100.0
45864;BME280;31579;52.354;16.974;2022-12-07T02:11:42;445.6;;;-146.1;100.0
45864;BME280;31579;52.354;16.974;2022-12-07T02:12:47;448.9;;;-146.1;100.0
45864;BME280;31579;52.354;16.974;2022-12-07T02:13:49;454.9;;;-146.1;100.0
45864;BME280;31579;52.354;16.974;2022-12-07T02:14:52;457.2;;;-146.1;100.0
45864;BME280;31579;52.354;16.974;2022-12-07T02:22:18;482.9;;;-146.1;100.0
45864;BME280;31579;52.354;16.974;2022-12-07T02:30:40;481.3;;;-146.1;100.0
45864;BME280;31579;52.354;16.974;2022-12-07T02:31:44;478.6;;;-146.1;100.0
45864;BME280;31579;52.354;16.974;2022-12-07T02:33:49;479.0;;;-146.1;100.0
45864;BME280;31579;52.354;16.974;2022-12-07T02:36:56;479.2;;;-146.1;100.0
45864;BME280;31579;52.354;16.974;2022-12-07T02:38:03;479.5;;;-146.1;100.0
45864;BME280;31579;52.354;16.974;2022-12-07T02:39:05;500.6;;;-146.1;100.0
45864;BME280;31579;52.354;16.974;2022-12-07T02:41:10;493.8;;;-146.1;100.0
45864;BME280;31579;52.354;16.974;2022-12-07T02:42:15;490.9;;;-146.1;100.0
45864;BME280;31579;52.354;16.974;2022-12-07T02:44:17;489.4;;;-146.1;100.0
45864;BME280;31579;52.354;16.974;2022-12-07T02:45:20;489.0;;;-146.1;100.0
45864;BME280;31579;52.354;16.974;2022-12-07T02:46:25;487.2;;;-146.1;100.0
45864;BME280;31579;52.354;16.974;2022-12-07T02:47:25;487.1;;;-146.1;100.0
45864;BME280;31579;52.354;16.974;2022-12-07T02:48:28;487.1;;;-146.1;100.0
45864;BME280;31579;52.354;16.974;2022-12-07T02:49:31;486.9;;;-146.1;100.0
45864;BME280;31579;52.354;16.974;2022-12-07T02:50:34;486.9;;;-146.1;100.0
45864;BME280;31579;52.354;16.974;2022-12-07T02:51:39;487.2;;;-146.1;100.0
45864;BME280;31579;52.354;16.974;2022-12-07T02:52:40;487.6;;;-146.1;100.0
45864;BME280;31579;52.354;16.974;2022-12-07T02:53:44;487.6;;;-146.1;100.0
45864;BME280;31579;52.354;16.974;2022-12-07T02:54:46;487.7;;;-146.1;100.0
45864;BME280;31579;52.354;16.974;2022-12-07T02:55:49;487.8;;;-146.1;100.0
45864;BME280;31579;52.354;16.974;2022-12-07T02:59:17;459.2;;;-146.1;100.0
45864;BME280;31579;52.354;16.974;2022-12-07T03:00:18;466.1;;;-146.1;100.0
45864;BME280;31579;52.354;16.974;2022-12-07T03:03:25;475.7;;;-146.1;100.0
45864;BME280;31579;52.354;16.974;2022-12-07T03:06:36;474.9;;;-146.1;100.0
45864;BME280;31579;52.354;16.974;2022-12-07T03:10:52;476.3;;;-146.1;100.0
45864;BME280;31579;52.354;16.974;2022-12-07T03:11:51;476.8;;;-146.1;100.0
45864;BME280;31579;52.354;16.974;2022-12-07T03:15:02;475.3;;;-146.1;100.0
45864;BME280;31579;52.354;16.974;2022-12-07T03:18:10;443.7;;;-146.1;100.0
45864;BME280;31579;52.354;16.974;2022-12-07T03:19:15;451.8;;;-146.1;100.0
45864;BME280;31579;52.354;16.974;2022-12-07T03:20:17;458.2;;;-146.1;100.0
45864;BME280;31579;52.354;16.974;2022-12-07T03:22:22;465.7;;;-146.1;100.0
45864;BME280;31579;52.354;16.974;2022-12-07T03:23:25;464.8;;;-146.1;100.0
45864;BME280;31579;52.354;16.974;2022-12-07T03:24:31;466.9;;;-146.1;100.0
45864;BME280;31579;52.354;16.974;2022-12-07T03:25:31;468.7;;;-146.1;100.0
45864;BME280;31579;52.354;16.974;2022-12-07T03:26:36;470.4;;;-146.1;100.0
45864;BME280;31579;52.354;16.974;2022-12-07T03:27:41;471.5;;;-146.1;100.0
45864;BME280;31579;52.354;16.974;2022-12-07T03:28:43;474.1;;;-146.1;100.0
45864;BME280;31579;52.354;16.974;2022-12-07T03:29:47;473.7;;;-146.1;100.0
45864;BME280;31579;52.354;16.974;2022-12-07T03:31:53;470.9;;;-146.1;100.0
45864;BME280;31579;52.354;16.974;2022-12-07T03:32:57;471.4;;;-146.1;100.0
45864;BME280;31579;52.354;16.974;2022-12-07T03:36:06;392.3;;;-146.1;100.0
45864;BME280;31579;52.354;16.974;2022-12-07T03:37:15;454.6;;;-146.1;100.0
45864;BME280;31579;52.354;16.974;2022-12-07T03:39:17;457.8;;;-146.1;100.0
45864;BME280;31579;52.354;16.974;2022-12-07T03:41:23;465.9;;;-146.1;100.0
45864;BME280;31579;52.354;16.974;2022-12-07T03:42:22;467.1;;;-146.1;100.0
45864;BME280;31579;52.354;16.974;2022-12-07T03:43:27;468.2;;;-146.1;100.0
45864;BME280;31579;52.354;16.974;2022-12-07T03:44:28;469.5;;;-146.1;100.0
45864;BME280;31579;52.354;16.974;2022-12-07T03:46:40;469.3;;;-146.1;100.0
45864;BME280;31579;52.354;16.974;2022-12-07T03:48:41;470.5;;;-146.1;100.0
45864;BME280;31579;52.354;16.974;2022-12-07T03:49:45;470.9;;;-146.1;100.0
45864;BME280;31579;52.354;16.974;2022-12-07T03:50:50;470.9;;;-146.1;100.0
45864;BME280;31579;52.354;16.974;2022-12-07T03:52:53;471.2;;;-146.1;100.0
45864;BME280;31579;52.354;16.974;2022-12-07T03:54:45;471.4;;;-146.1;100.0
45864;BME280;31579;52.354;16.974;2022-12-07T03:56:00;498.3;;;-146.1;100.0
45864;BME280;31579;52.354;16.974;2022-12-07T03:57:04;493.0;;;-146.1;100.0
45864;BME280;31579;52.354;16.974;2022-12-07T03:58:10;490.3;;;-146.1;100.0
45864;BME280;31579;52.354;16.974;2022-12-07T03:59:11;488.4;;;-146.1;100.0
45864;BME280;31579;52.354;16.974;2022-12-07T04:00:13;486.9;;;-146.1;100.0
45864;BME280;31579;52.354;16.974;2022-12-07T04:01:17;485.2;;;-146.1;100.0
45864;BME280;31579;52.354;16.974;2022-12-07T04:02:19;481.7;;;-146.1;100.0
45864;BME280;31579;52.354;16.974;2022-12-07T04:03:22;481.9;;;-146.1;100.0
45864;BME280;31579;52.354;16.974;2022-12-07T04:04:25;479.7;;;-146.1;100.0
45864;BME280;31579;52.354;16.974;2022-12-07T04:05:28;479.8;;;-146.1;100.0
45864;BME280;31579;52.354;16.974;2022-12-07T04:06:31;479.5;;;-146.1;100.0
45864;BME280;31579;52.354;16.974;2022-12-07T04:07:34;479.6;;;-146.1;100.0
45864;BME280;31579;52.354;16.974;2022-12-07T04:08:37;479.5;;;-146.1;100.0
45864;BME280;31579;52.354;16.974;2022-12-07T04:09:40;479.3;;;-146.1;100.0
45864;BME280;31579;52.354;16.974;2022-12-07T04:10:43;476.6;;;-146.1;100.0
45864;BME280;31579;52.354;16.974;2022-12-07T04:11:48;479.1;;;-146.1;100.0
45864;BME280;31579;52.354;16.974;2022-12-07T04:12:50;479.1;;;-146.1;100.0
45864;BME280;31579;52.354;16.974;2022-12-07T04:13:53;479.2;;;-146.1;100.0
45864;BME280;31579;52.354;16.974;2022-12-07T04:14:56;478.9;;;-146.1;100.0
45864;BME280;31579;52.354;16.974;2022-12-07T04:15:59;478.7;;;-146.1;100.0
45864;BME280;31579;52.354;16.974;2022-12-07T04:17:03;404.7;;;-146.1;100.0
45864;BME280;31579;52.354;16.974;2022-12-07T04:18:06;433.1;;;-146.1;100.0
45864;BME280;31579;52.354;16.974;2022-12-07T04:19:09;440.1;;;-146.1;100.0
45864;BME280;31579;52.354;16.974;2022-12-07T04:20:12;450.4;;;-146.1;100.0
45864;BME280;31579;52.354;16.974;2022-12-07T04:21:15;457.8;;;-146.1;100.0
45864;BME280;31579;52.354;16.974;2022-12-07T04:22:18;462.3;;;-146.1;100.0
45864;BME280;31579;52.354;16.974;2022-12-07T04:23:21;465.3;;;-146.1;100.0
45864;BME280;31579;52.354;16.974;2022-12-07T04:24:38;420.7;;;-146.1;100.0
45864;BME280;31579;52.354;16.974;2022-12-07T04:25:42;333.7;;;-146.1;100.0
45864;BME280;31579;52.354;16.974;2022-12-07T04:26:46;352.5;;;-146.1;100.0
45864;BME280;31579;52.354;16.974;2022-12-07T04:27:48;371.9;;;-146.1;100.0
45864;BME280;31579;52.354;16.974;2022-12-07T04:28:51;388.9;;;-146.1;100.0
45864;BME280;31579;52.354;16.974;2022-12-07T04:30:09;422.0;;;-146.1;100.0
45864;BME280;31579;52.354;16.974;2022-12-07T04:31:11;331.7;;;-146.1;100.0
45864;BME280;31579;52.354;16.974;2022-12-07T04:32:14;331.7;;;-146.1;100.0
45864;BME280;31579;52.354;16.974;2022-12-07T04:33:17;342.6;;;-146.1;100.0
45864;BME280;31579;52.354;16.974;2022-12-07T04:34:20;356.1;;;-146.1;100.0
45864;BME280;31579;52.354;16.974;2022-12-07T04:35:23;371.4;;;-146.1;100.0
45864;BME280;31579;52.354;16.974;2022-12-07T04:36:26;385.1;;;-146.1;100.0
45864;BME280;31579;52.354;16.974;2022-12-07T04:37:29;398.4;;;-146.1;100.0
45864;BME280;31579;52.354;16.974;2022-12-07T04:38:32;410.3;;;-146.1;100.0
45864;BME280;31579;52.354;16.974;2022-12-07T04:39:35;420.0;;;-146.1;100.0
45864;BME280;31579;52.354;16.974;2022-12-07T04:40:38;430.6;;;-146.1;100.0
45864;BME280;31579;52.354;16.974;2022-12-07T04:41:41;438.4;;;-146.1;100.0
45864;BME280;31579;52.354;16.974;2022-12-07T04:42:44;443.3;;;-146.1;100.0
45864;BME280;31579;52.354;16.974;2022-12-07T04:43:47;448.4;;;-146.1;100.0
45864;BME280;31579;52.354;16.974;2022-12-07T04:44:51;455.4;;;-146.1;100.0
45864;BME280;31579;52.354;16.974;2022-12-07T04:45:54;457.2;;;-146.1;100.0
45864;BME280;31579;52.354;16.974;2022-12-07T04:46:57;460.1;;;-146.1;100.0
45864;BME280;31579;52.354;16.974;2022-12-07T04:48:01;388.8;;;-146.1;100.0
45864;BME280;31579;52.354;16.974;2022-12-07T04:49:03;478.1;;;-146.1;100.0
45864;BME280;31579;52.354;16.974;2022-12-07T04:50:06;500.9;;;-146.1;100.0
45864;BME280;31579;52.354;16.974;2022-12-07T04:51:08;494.9;;;-146.1;100.0
45864;BME280;31579;52.354;16.974;2022-12-07T04:52:11;492.2;;;-146.1;100.0
45864;BME280;31579;52.354;16.974;2022-12-07T04:53:15;490.4;;;-146.1;100.0
45864;BME280;31579;52.354;16.974;2022-12-07T04:54:18;489.2;;;-146.1;100.0
45864;BME280;31579;52.354;16.974;2022-12-07T04:55:20;488.3;;;-146.1;100.0
45864;BME280;31579;52.354;16.974;2022-12-07T04:56:24;485.3;;;-146.1;100.0
45864;BME280;31579;52.354;16.974;2022-12-07T04:57:27;485.8;;;-146.1;100.0
45864;BME280;31579;52.354;16.974;2022-12-07T04:58:30;485.3;;;-146.1;100.0
45864;BME280;31579;52.354;16.974;2022-12-07T04:59:33;485.1;;;-146.1;100.0
45864;BME280;31579;52.354;16.974;2022-12-07T05:00:36;484.9;;;-146.1;100.0
45864;BME280;31579;52.354;16.974;2022-12-07T05:01:40;482.3;;;-146.1;100.0
45864;BME280;31579;52.354;16.974;2022-12-07T05:02:42;482.5;;;-146.1;100.0
45864;BME280;31579;52.354;16.974;2022-12-07T05:03:45;482.9;;;-146.1;100.0
45864;BME280;31579;52.354;16.974;2022-12-07T05:04:48;482.9;;;-146.1;100.0
45864;BME280;31579;52.354;16.974;2022-12-07T05:05:51;483.4;;;-146.1;100.0
45864;BME280;31579;52.354;16.974;2022-12-07T05:06:54;483.3;;;-146.1;100.0
45864;BME280;31579;52.354;16.974;2022-12-07T05:07:57;482.7;;;-146.1;100.0
45864;BME280;31579;52.354;16.974;2022-12-07T05:09:14;380.0;;;-146.1;100.0
45864;BME280;31579;52.354;16.974;2022-12-07T05:10:17;343.4;;;-146.1;100.0
45864;BME280;31579;52.354;16.974;2022-12-07T05:11:20;366.4;;;-146.1;100.0
45864;BME280;31579;52.354;16.974;2022-12-07T05:12:37;425.1;;;-146.1;100.0
45864;BME280;31579;52.354;16.974;2022-12-07T05:13:40;317.8;;;-146.1;100.0
45864;BME280;31579;52.354;16.974;2022-12-07T05:14:43;316.7;;;-146.1;100.0
45864;BME280;31579;52.354;16.974;2022-12-07T05:15:47;329.0;;;-146.1;100.0
45864;BME280;31579;52.354;16.974;2022-12-07T05:16:50;343.8;;;-146.1;100.0
45864;BME280;31579;52.354;16.974;2022-12-07T05:17:54;358.9;;;-146.1;100.0
45864;BME280;31579;52.354;16.974;2022-12-07T05:18:57;370.9;;;-146.1;100.0
45864;BME280;31579;52.354;16.974;2022-12-07T05:20:00;381.6;;;-146.1;100.0
45864;BME280;31579;52.354;16.974;2022-12-07T05:21:03;393.0;;;-146.1;100.0
45864;BME280;31579;52.354;16.974;2022-12-07T05:22:06;404.0;;;-146.1;100.0
45864;BME280;31579;52.354;16.974;2022-12-07T05:23:09;414.1;;;-146.1;100.0
45864;BME280;31579;52.354;16.974;2022-12-07T05:24:13;421.2;;;-146.1;100.0
45864;BME280;31579;52.354;16.974;2022-12-07T05:25:15;426.8;;;-146.1;100.0
45864;BME280;31579;52.354;16.974;2022-12-07T05:26:18;433.2;;;-146.1;100.0
45864;BME280;31579;52.354;16.974;2022-12-07T05:27:21;437.6;;;-146.1;100.0
45864;BME280;31579;52.354;16.974;2022-12-07T05:28:24;441.0;;;-146.1;100.0
45864;BME280;31579;52.354;16.974;2022-12-07T05:29:27;444.3;;;-146.1;100.0
45864;BME280;31579;52.354;16.974;2022-12-07T05:30:30;448.0;;;-146.1;100.0
45864;BME280;31579;52.354;16.974;2022-12-07T05:31:32;492.5;;;-146.1;100.0
45864;BME280;31579;52.354;16.974;2022-12-07T05:32:42;505.9;;;-146.1;100.0
45864;BME280;31579;52.354;16.974;2022-12-07T05:33:45;323.2;;;-146.1;100.0
45864;BME280;31579;52.354;16.974;2022-12-07T05:34:48;321.1;;;-146.1;100.0
45864;BME280;31579;52.354;16.974;2022-12-07T05:35:51;334.8;;;-146.1;100.0
45864;BME280;31579;52.354;16.974;2022-12-07T05:36:54;349.5;;;-146.1;100.0
45864;BME280;31579;52.354;16.974;2022-12-07T05:37:57;363.0;;;-146.1;100.0
45864;BME280;31579;52.354;16.974;2022-12-07T05:39:00;375.9;;;-146.1;100.0
45864;BME280;31579;52.354;16.974;2022-12-07T05:40:08;434.2;;;-146.1;100.0
45864;BME280;31579;52.354;16.974;2022-12-07T05:41:14;333.8;;;-146.1;100.0
45864;BME280;31579;52.354;16.974;2022-12-07T05:42:14;334.0;;;-146.1;100.0
45864;BME280;31579;52.354;16.974;2022-12-07T05:43:17;343.3;;;-146.1;100.0
45864;BME280;31579;52.354;16.974;2022-12-07T05:44:20;354.6;;;-146.1;100.0
45864;BME280;31579;52.354;16.974;2022-12-07T05:45:23;366.0;;;-146.1;100.0
45864;BME280;31579;52.354;16.974;2022-12-07T05:46:26;377.7;;;-146.1;100.0
45864;BME280;31579;52.354;16.974;2022-12-07T05:47:29;388.1;;;-146.1;100.0
45864;BME280;31579;52.354;16.974;2022-12-07T05:48:32;398.6;;;-146.1;100.0
45864;BME280;31579;52.354;16.974;2022-12-07T05:49:35;409.3;;;-146.1;100.0
45864;BME280;31579;52.354;16.974;2022-12-07T05:50:38;418.8;;;-146.1;100.0
45864;BME280;31579;52.354;16.974;2022-12-07T05:51:42;431.0;;;-146.1;100.0
45864;BME280;31579;52.354;16.974;2022-12-07T05:52:45;436.1;;;-146.1;100.0
45864;BME280;31579;52.354;16.974;2022-12-07T05:53:48;439.8;;;-146.1;100.0
45864;BME280;31579;52.354;16.974;2022-12-07T05:54:51;443.5;;;-146.1;100.0
45864;BME280;31579;52.354;16.974;2022-12-07T05:55:54;446.8;;;-146.1;100.0
45864;BME280;31579;52.354;16.974;2022-12-07T05:56:57;451.4;;;-146.1;100.0
45864;BME280;31579;52.354;16.974;2022-12-07T05:58:01;388.6;;;-146.1;100.0
45864;BME280;31579;52.354;16.974;2022-12-07T05:59:04;387.2;;;-146.1;100.0
45864;BME280;31579;52.354;16.974;2022-12-07T06:00:06;485.9;;;-146.1;100.0
45864;BME280;31579;52.354;16.974;2022-12-07T06:01:10;475.9;;;-146.1;100.0
45864;BME280;31579;52.354;16.974;2022-12-07T06:02:14;472.0;;;-146.1;100.0
45864;BME280;31579;52.354;16.974;2022-12-07T06:03:16;470.4;;;-146.1;100.0
45864;BME280;31579;52.354;16.974;2022-12-07T06:04:19;468.8;;;-146.1;100.0
45864;BME280;31579;52.354;16.974;2022-12-07T06:05:22;468.6;;;-146.1;100.0
45864;BME280;31579;52.354;16.974;2022-12-07T06:06:25;468.3;;;-146.1;100.0
45864;BME280;31579;52.354;16.974;2022-12-07T06:07:42;420.5;;;-146.1;100.0
45864;BME280;31579;52.354;16.974;2022-12-07T06:08:45;330.8;;;-146.1;100.0
45864;BME280;31579;52.354;16.974;2022-12-07T06:09:48;346.1;;;-146.1;100.0
45864;BME280;31579;52.354;16.974;2022-12-07T06:10:51;361.6;;;-146.1;100.0
45864;BME280;31579;52.354;16.974;2022-12-07T06:11:55;374.0;;;-146.1;100.0
45864;BME280;31579;52.354;16.974;2022-12-07T06:12:58;387.4;;;-146.1;100.0
45864;BME280;31579;52.354;16.974;2022-12-07T06:14:00;473.2;;;-146.1;100.0
45864;BME280;31579;52.354;16.974;2022-12-07T06:15:05;460.1;;;-146.1;100.0
45864;BME280;31579;52.354;16.974;2022-12-07T06:16:07;454.8;;;-146.1;100.0
45864;BME280;31579;52.354;16.974;2022-12-07T06:17:11;454.5;;;-146.1;100.0
45864;BME280;31579;52.354;16.974;2022-12-07T06:18:14;450.6;;;-146.1;100.0
45864;BME280;31579;52.354;16.974;2022-12-07T06:19:17;446.8;;;-146.1;100.0
45864;BME280;31579;52.354;16.974;2022-12-07T06:20:20;442.4;;;-146.1;100.0
45864;BME280;31579;52.354;16.974;2022-12-07T06:21:23;440.1;;;-146.1;100.0
45864;BME280;31579;52.354;16.974;2022-12-07T06:22:26;437.5;;;-146.1;100.0
45864;BME280;31579;52.354;16.974;2022-12-07T06:23:29;433.7;;;-146.1;100.0
45864;BME280;31579;52.354;16.974;2022-12-07T06:24:32;430.7;;;-146.1;100.0
45864;BME280;31579;52.354;16.974;2022-12-07T06:25:35;427.9;;;-146.1;100.0
45864;BME280;31579;52.354;16.974;2022-12-07T06:26:37;485.5;;;-146.1;100.0
45864;BME280;31579;52.354;16.974;2022-12-07T06:27:39;499.1;;;-146.1;100.0